Time;durP1;ratioP1;P1;durP2;ratioP2;P2;SDS_P1;SDS_P2;PMS_P1;PMS_P2;Temp;Humidity;BMP_temperature;BMP_pressure;BME280_temperature;BME280_humidity;BME280_pressure;Samples;Min_cycle;Max_cycle;Signal;HPM_P1;HPM_P2
2022/08/25 00:00:46;;;;;;;0.10;0.00;;;;;;;14.96;100.00;101046.50;5020811;28;20121;-51
2022/08/25 00:03:13;;;;;;;0.55;0.20;;;;;;;14.91;100.00;101043.63;5024786;28;20052;-55
2022/08/25 00:05:39;;;;;;;0.40;0.40;;;;;;;14.88;100.00;101041.38;5019559;28;20036;-54
2022/08/25 00:08:06;;;;;;;1.60;0.50;;;;;;;14.87;100.00;101042.41;5014647;28;20025;-52
2022/08/25 00:10:34;;;;;;;0.00;0.00;;;;;;;14.89;100.00;101039.53;5021165;28;20021;-54
2022/08/25 00:12:59;;;;;;;1.90;0.10;;;;;;;14.91;100.00;101032.94;5013091;28;20061;-52
2022/08/25 00:15:25;;;;;;;0.30;0.00;;;;;;;14.96;100.00;101043.03;5025491;28;20099;-53
2022/08/25 00:17:50;;;;;;;0.35;0.35;;;;;;;15.05;100.00;101037.28;5008080;28;20025;-52
2022/08/25 00:20:16;;;;;;;0.03;0.03;;;;;;;15.10;100.00;101035.81;5027663;28;20052;-48
2022/08/25 00:22:41;;;;;;;1.95;0.05;;;;;;;15.09;100.00;101034.19;5026487;28;20077;-50
2022/08/25 00:25:08;;;;;;;0.05;0.00;;;;;;;15.03;100.00;101031.31;5024272;28;20362;-52
2022/08/25 00:27:34;;;;;;;0.05;0.05;;;;;;;15.03;100.00;101036.66;5028790;28;20029;-52
2022/08/25 00:30:00;;;;;;;0.28;0.08;;;;;;;15.01;100.00;101029.88;5025958;28;20536;-52
2022/08/25 00:32:25;;;;;;;0.10;0.10;;;;;;;15.00;100.00;101022.91;5026128;28;20025;-55
2022/08/25 00:34:52;;;;;;;2.95;0.10;;;;;;;15.00;100.00;101014.91;5014649;28;20093;-53
2022/08/25 00:37:18;;;;;;;0.03;0.03;;;;;;;14.96;100.00;101017.13;5025097;28;20040;-54
2022/08/25 00:39:43;;;;;;;0.10;0.10;;;;;;;14.95;100.00;101022.69;5021368;28;20026;-51
2022/08/25 00:42:09;;;;;;;1.98;0.10;;;;;;;14.96;100.00;101025.16;5023269;28;20546;-53
2022/08/25 00:44:35;;;;;;;1.17;0.10;;;;;;;14.95;100.00;101025.38;5016378;28;20541;-53
2022/08/25 00:47:02;;;;;;;0.32;0.10;;;;;;;14.95;100.00;101028.84;5020284;28;20045;-51
2022/08/25 00:49:43;;;;;;;0.85;0.00;;;;;;;14.99;100.00;101035.41;5019495;28;20569;-51
2022/08/25 00:52:22;;;;;;;0.28;0.10;;;;;;;15.03;100.00;101036.66;5026690;28;20044;-53
2022/08/25 00:54:56;;;;;;;0.63;0.10;;;;;;;15.01;100.00;101029.88;5024746;28;20037;-51
2022/08/25 00:57:33;;;;;;;0.82;0.20;;;;;;;15.02;100.00;101034.16;5022464;28;20479;-52
2022/08/25 00:59:59;;;;;;;0.08;0.00;;;;;;;15.03;100.00;101031.31;5023221;28;20083;-50
2022/08/25 01:02:25;;;;;;;0.20;0.10;;;;;;;15.08;100.00;101035.22;5022937;28;20421;-55
2022/08/25 01:04:50;;;;;;;0.73;0.20;;;;;;;15.10;100.00;101039.31;5029961;28;20148;-52
2022/08/25 01:07:19;;;;;;;0.10;0.10;;;;;;;15.12;100.00;101039.91;5022076;28;20119;-50
2022/08/25 01:09:46;;;;;;;0.28;0.20;;;;;;;15.11;100.00;101040.16;5025141;28;20025;-53
2022/08/25 01:12:12;;;;;;;0.38;0.30;;;;;;;15.10;100.00;101046.50;5025496;28;21141;-47
2022/08/25 01:14:38;;;;;;;0.20;0.20;;;;;;;15.11;100.00;101050.81;5027526;28;20029;-53
2022/08/25 01:17:04;;;;;;;2.25;0.10;;;;;;;15.15;100.00;101052.03;5023648;28;20068;-52
2022/08/25 01:19:32;;;;;;;0.15;0.00;;;;;;;15.19;100.00;101061.28;5017802;28;20037;-51
2022/08/25 01:21:58;;;;;;;0.32;0.10;;;;;;;15.17;100.00;101050.81;5010287;28;20018;-52
2022/08/25 01:24:55;;;;;;;0.40;0.35;;;;;;;15.14;100.00;101045.88;5022382;28;20036;-48
2022/08/25 01:27:20;;;;;;;0.63;0.30;;;;;;;15.13;100.00;101048.78;5020220;28;20064;-53
2022/08/25 01:29:46;;;;;;;0.55;0.00;;;;;;;15.17;100.00;101047.31;5023936;28;20057;-48
2022/08/25 01:32:13;;;;;;;0.10;0.00;;;;;;;15.18;100.00;101032.91;5026964;28;20537;-52
2022/08/25 01:34:41;;;;;;;0.20;0.00;;;;;;;15.17;100.00;101031.28;5023172;28;20021;-53
2022/08/25 01:37:09;;;;;;;0.35;0.10;;;;;;;15.16;100.00;101038.50;5018723;28;20407;-53
2022/08/25 01:39:38;;;;;;;1.88;0.00;;;;;;;15.20;100.00;101036.22;5022538;28;20025;-51
2022/08/25 01:42:08;;;;;;;0.00;0.00;;;;;;;15.23;100.00;101031.28;5026377;28;20053;-51
2022/08/25 01:44:36;;;;;;;0.00;0.00;;;;;;;15.25;100.00;101031.06;5021921;28;20030;-53
2022/08/25 01:47:04;;;;;;;0.47;0.25;;;;;;;15.25;100.00;101021.19;5027327;28;20393;-50
2022/08/25 01:49:29;;;;;;;0.15;0.15;;;;;;;15.29;100.00;101024.28;5015424;28;20025;-52
2022/08/25 01:52:04;;;;;;;0.17;0.10;;;;;;;15.30;100.00;101017.09;5022848;28;20026;-52
2022/08/25 01:54:29;;;;;;;0.03;0.00;;;;;;;15.29;100.00;101024.28;5030862;28;20052;-52
2022/08/25 01:56:54;;;;;;;0.25;0.03;;;;;;;15.27;100.00;101024.47;5020731;28;20097;-54
2022/08/25 01:59:21;;;;;;;0.00;0.00;;;;;;;15.28;100.00;101022.63;5023566;28;20387;-52
2022/08/25 02:01:46;;;;;;;0.00;0.00;;;;;;;15.33;100.00;101024.69;5012549;28;20026;-54
2022/08/25 02:04:12;;;;;;;0.00;0.00;;;;;;;15.35;100.00;101028.78;5029825;28;20029;-53
2022/08/25 02:06:38;;;;;;;1.52;0.45;;;;;;;15.38;100.00;101028.34;5014000;28;20038;-55
2022/08/25 02:09:08;;;;;;;0.20;0.10;;;;;;;15.42;100.00;101032.28;5024875;28;20071;-54
2022/08/25 02:11:36;;;;;;;0.65;0.00;;;;;;;15.50;100.00;101036.56;5019816;28;20048;-54
2022/08/25 02:14:02;;;;;;;0.15;0.00;;;;;;;15.56;100.00;101029.56;5022329;28;20079;-53
2022/08/25 02:16:31;;;;;;;0.00;0.00;;;;;;;15.59;100.00;101035.31;5015070;28;20213;-51
2022/08/25 02:18:58;;;;;;;0.03;0.00;;;;;;;15.64;100.00;101042.69;5015604;28;20025;-50
2022/08/25 02:21:23;;;;;;;0.20;0.00;;;;;;;15.71;100.00;101038.16;5017010;28;20509;-53
2022/08/25 02:23:49;;;;;;;0.32;0.20;;;;;;;15.73;100.00;101032.63;5019599;28;20065;-51
2022/08/25 02:26:18;;;;;;;0.52;0.00;;;;;;;15.71;100.00;101048.88;5021730;28;20030;-54
2022/08/25 02:28:48;;;;;;;0.03;0.00;;;;;;;15.70;100.00;101052.59;5020839;28;20033;-50
2022/08/25 02:31:15;;;;;;;1.23;0.30;;;;;;;15.71;100.00;101059.56;5011104;28;20104;-54
2022/08/25 02:33:40;;;;;;;1.08;0.20;;;;;;;15.73;100.00;101052.16;5011350;28;20025;-50
2022/08/25 02:36:06;;;;;;;0.10;0.00;;;;;;;15.74;100.00;101053.78;5017456;28;20040;-53
2022/08/25 02:38:34;;;;;;;0.20;0.10;;;;;;;15.73;100.00;101046.81;5013466;28;20033;-50
2022/08/25 02:41:06;;;;;;;0.13;0.00;;;;;;;15.70;100.00;101039.22;5014064;28;20103;-51
2022/08/25 02:43:32;;;;;;;0.30;0.08;;;;;;;15.68;100.00;101042.06;5011907;28;20424;-54
2022/08/25 02:45:58;;;;;;;0.28;0.15;;;;;;;15.72;100.00;101039.00;5012113;28;20028;-53
2022/08/25 02:48:24;;;;;;;0.22;0.10;;;;;;;15.80;100.00;101052.97;5020006;28;20451;-50
2022/08/25 02:50:51;;;;;;;0.30;0.30;;;;;;;15.80;100.00;101036.91;5014687;28;20026;-53
2022/08/25 02:53:18;;;;;;;2.83;0.85;;;;;;;15.81;100.00;101035.88;5012489;28;20517;-55
2022/08/25 02:55:43;;;;;;;1.30;1.20;;;;;;;15.87;100.00;101042.22;5021702;28;20036;-51
2022/08/25 02:58:09;;;;;;;1.08;0.80;;;;;;;15.92;100.00;101037.06;5024866;28;20405;-51
2022/08/25 03:00:35;;;;;;;1.30;1.08;;;;;;;15.96;100.00;101034.78;5021750;28;20029;-52
2022/08/25 03:03:00;;;;;;;2.70;1.05;;;;;;;16.02;100.00;101029.41;5026749;28;20171;-54
2022/08/25 03:05:26;;;;;;;1.08;0.93;;;;;;;16.04;100.00;101031.88;5018582;28;20044;-52
2022/08/25 03:07:51;;;;;;;2.17;2.03;;;;;;;16.08;100.00;101025.03;5019638;28;20536;-52
2022/08/25 03:10:18;;;;;;;5.22;2.05;;;;;;;16.14;100.00;101026.88;5026447;28;20092;-51
2022/08/25 03:12:44;;;;;;;2.95;2.75;;;;;;;16.16;100.00;101018.63;5018260;28;20072;-54
2022/08/25 03:15:11;;;;;;;2.17;2.08;;;;;;;16.21;100.00;101016.13;5024011;28;20064;-51
2022/08/25 03:17:37;;;;;;;4.20;2.72;;;;;;;16.25;100.00;101004.78;5013326;28;20049;-53
2022/08/25 03:20:06;;;;;;;2.17;2.00;;;;;;;16.29;100.00;101008.69;5028417;28;20119;-52
2022/08/25 03:22:31;;;;;;;2.40;2.22;;;;;;;16.26;100.00;101002.91;5022841;28;20570;-50
2022/08/25 03:26:52;;;;;;;2.20;2.00;;;;;;;16.25;100.00;100994.06;5013496;28;20044;-54
2022/08/25 03:27:42;;;;;;;2.72;2.53;;;;;;;16.24;100.00;100984.44;5027752;28;20128;-52
2022/08/25 03:30:09;;;;;;;2.58;2.40;;;;;;;16.26;100.00;100982.34;5023851;28;20465;-55
2022/08/25 03:32:35;;;;;;;3.22;2.97;;;;;;;16.29;100.00;100975.75;5018505;28;20068;-53
2022/08/25 03:35:00;;;;;;;2.67;2.47;;;;;;;16.28;100.00;100966.06;5019421;28;20111;-55
2022/08/25 03:37:26;;;;;;;3.80;3.33;;;;;;;16.29;100.00;100951.69;5021993;28;20025;-50
2022/08/25 03:39:52;;;;;;;2.85;2.65;;;;;;;16.28;100.00;100956.19;5026731;28;20163;-51
2022/08/25 03:42:17;;;;;;;3.30;3.00;;;;;;;16.27;100.00;100967.13;5020105;28;20429;-51
2022/08/25 03:44:42;;;;;;;5.45;2.67;;;;;;;16.25;100.00;100971.88;5017733;28;20144;-54
2022/08/25 03:47:08;;;;;;;3.25;2.95;;;;;;;16.25;100.00;100975.34;5023443;28;20075;-52
2022/08/25 03:49:33;;;;;;;2.58;2.20;;;;;;;16.26;100.00;100971.66;5023593;28;20116;-54
2022/08/25 03:51:58;;;;;;;2.60;2.40;;;;;;;16.24;100.00;100972.91;5026211;28;20049;-51
2022/08/25 03:54:24;;;;;;;2.88;2.42;;;;;;;16.22;100.00;100967.75;5023688;28;20117;-53
2022/08/25 03:56:51;;;;;;;3.03;2.83;;;;;;;16.23;100.00;100971.25;5018621;28;20368;-52
2022/08/25 03:59:16;;;;;;;4.45;4.07;;;;;;;16.24;100.00;100957.66;5022400;28;20098;-51
2022/08/25 04:01:43;;;;;;;3.55;3.30;;;;;;;16.25;100.00;100963.84;5024632;28;20437;-49
2022/08/25 04:04:10;;;;;;;3.60;2.75;;;;;;;16.22;100.00;100954.38;5019411;28;20033;-52
2022/08/25 04:06:37;;;;;;;3.47;3.13;;;;;;;16.20;100.00;100966.34;5026381;28;20028;-54
2022/08/25 04:09:03;;;;;;;3.20;2.83;;;;;;;16.19;100.00;100976.22;5024914;28;20022;-53
2022/08/25 04:11:28;;;;;;;3.83;3.53;;;;;;;16.19;100.00;100975.41;5024681;28;20013;-55
2022/08/25 04:13:56;;;;;;;3.30;2.55;;;;;;;16.20;100.00;100993.91;5020932;28;20073;-55
2022/08/25 04:16:59;;;;;;;4.68;3.97;;;;;;;16.19;100.00;100994.94;5027914;28;20030;-51
2022/08/25 04:19:24;;;;;;;5.63;4.07;;;;;;;16.18;100.00;101006.66;5026375;28;20033;-55
2022/08/25 04:21:50;;;;;;;3.70;3.40;;;;;;;16.17;100.00;101015.75;5023864;28;20379;-55
2022/08/25 04:24:16;;;;;;;5.13;4.22;;;;;;;16.16;100.00;101019.47;5025270;28;20042;-50
2022/08/25 04:26:46;;;;;;;4.30;4.00;;;;;;;16.16;100.00;101026.66;5020910;28;20036;-53
2022/08/25 04:29:13;;;;;;;5.50;4.03;;;;;;;16.13;100.00;101023.38;5018735;28;20033;-49
2022/08/25 04:31:41;;;;;;;4.22;3.28;;;;;;;16.12;100.00;101019.06;5023763;28;20573;-53
2022/08/25 04:34:06;;;;;;;4.18;3.78;;;;;;;16.12;100.00;101010.22;5025355;28;20526;-53
2022/08/25 04:36:32;;;;;;;3.83;3.50;;;;;;;16.07;100.00;101010.03;5019966;28;20041;-51
2022/08/25 04:38:58;;;;;;;5.03;4.60;;;;;;;16.03;100.00;101008.81;5016662;28;20036;-52
2022/08/25 04:41:24;;;;;;;10.65;4.93;;;;;;;15.97;100.00;101004.34;5025767;28;20045;-51
2022/08/25 04:43:50;;;;;;;4.07;3.78;;;;;;;15.96;100.00;101002.69;5014753;28;20033;-53
2022/08/25 04:46:20;;;;;;;4.05;3.67;;;;;;;15.92;100.00;101003.09;5020999;28;20037;-51
2022/08/25 04:48:45;;;;;;;6.65;4.60;;;;;;;15.92;100.00;100995.09;5023750;28;20129;-51
2022/08/25 04:51:19;;;;;;;5.53;3.33;;;;;;;15.93;100.00;100993.25;5023082;28;20088;-53
2022/08/25 04:53:45;;;;;;;5.97;4.15;;;;;;;15.95;100.00;100990.34;5015893;28;20036;-54
2022/08/25 04:56:16;;;;;;;4.03;3.63;;;;;;;15.95;100.00;100990.34;5018450;28;20038;-51
2022/08/25 04:58:42;;;;;;;4.55;4.15;;;;;;;15.95;100.00;100998.38;5023372;28;20025;-50
2022/08/25 05:01:16;;;;;;;4.70;4.30;;;;;;;15.92;100.00;101000.44;5026180;28;20037;-53
2022/08/25 05:03:42;;;;;;;4.65;3.97;;;;;;;15.91;100.00;101006.81;5024395;28;20375;-53
2022/08/25 05:06:08;;;;;;;5.93;3.70;;;;;;;15.95;100.00;101022.44;5021488;28;20032;-50
2022/08/25 05:08:34;;;;;;;4.13;3.47;;;;;;;15.95;100.00;101028.59;5022808;28;20033;-53
2022/08/25 05:11:09;;;;;;;3.53;3.22;;;;;;;15.97;100.00;101036.44;5021413;28;20091;-56
2022/08/25 05:13:35;;;;;;;3.65;3.30;;;;;;;15.97;100.00;101039.09;5014835;28;20052;-50
2022/08/25 05:16:01;;;;;;;3.60;3.30;;;;;;;15.99;100.00;101029.00;5023843;28;20032;-51
2022/08/25 05:18:29;;;;;;;3.08;2.85;;;;;;;16.00;100.00;101036.00;5020918;28;20398;-49
2022/08/25 05:20:56;;;;;;;6.90;3.92;;;;;;;15.99;100.00;101042.38;5026104;28;20017;-50
2022/08/25 05:23:23;;;;;;;3.90;2.92;;;;;;;16.00;100.00;101041.34;5015410;28;20095;-52
2022/08/25 05:25:51;;;;;;;5.00;4.50;;;;;;;16.03;100.00;101041.75;5025183;28;20048;-47
2022/08/25 05:28:17;;;;;;;5.63;4.22;;;;;;;16.06;100.00;101037.84;5018914;28;20376;-47
2022/08/25 05:30:43;;;;;;;3.97;3.67;;;;;;;16.06;100.00;101045.84;5024044;28;20025;-49
2022/08/25 05:33:10;;;;;;;4.30;3.90;;;;;;;16.04;100.00;101064.78;5019191;28;20382;-48
2022/08/25 05:35:35;;;;;;;3.70;3.40;;;;;;;16.06;100.00;101064.59;5019682;28;20025;-49
2022/08/25 05:38:02;;;;;;;4.40;3.95;;;;;;;16.05;100.00;101066.41;5015353;28;20040;-51
2022/08/25 05:40:28;;;;;;;9.13;4.72;;;;;;;16.03;100.00;101084.56;5011488;28;20030;-47
2022/08/25 05:42:54;;;;;;;4.97;4.57;;;;;;;16.00;100.00;101084.94;5015037;28;20056;-51
2022/08/25 05:45:19;;;;;;;5.10;4.15;;;;;;;16.01;100.00;101086.59;5012302;28;20044;-53
2022/08/25 05:47:44;;;;;;;4.85;4.45;;;;;;;16.02;100.00;101098.13;5016407;28;20134;-52
2022/08/25 05:50:10;;;;;;;5.93;4.68;;;;;;;16.04;100.00;101096.88;5011648;28;20124;-49
2022/08/25 05:52:36;;;;;;;5.43;4.93;;;;;;;16.06;100.00;101094.00;5018928;28;20053;-49
2022/08/25 05:55:02;;;;;;;5.45;4.43;;;;;;;16.07;100.00;101100.97;5023289;28;20092;-49
2022/08/25 05:57:27;;;;;;;3.78;3.47;;;;;;;16.09;100.00;101099.75;5020838;28;20029;-52
2022/08/25 06:00:05;;;;;;;7.88;4.07;;;;;;;16.08;100.00;101098.09;5012929;28;20029;-51
2022/08/25 06:02:45;;;;;;;5.30;3.60;;;;;;;16.11;100.00;101092.31;5024408;28;20132;-47
2022/08/25 06:05:13;;;;;;;8.40;5.03;;;;;;;16.12;100.00;101098.50;5014500;28;20025;-53
2022/08/25 06:07:39;;;;;;;6.13;4.32;;;;;;;16.13;100.00;101110.81;5026457;28;20503;-49
2022/08/25 06:10:06;;;;;;;7.70;4.35;;;;;;;16.12;100.00;101111.88;5014324;28;20033;-49
2022/08/25 06:12:34;;;;;;;7.65;5.25;;;;;;;16.12;100.00;101111.88;5017339;28;20052;-47
2022/08/25 06:15:01;;;;;;;4.53;4.13;;;;;;;16.13;100.00;101108.16;5020328;28;20029;-50
2022/08/25 06:17:26;;;;;;;9.57;5.75;;;;;;;16.14;100.00;101104.47;5023956;28;20442;-52
2022/08/25 06:19:53;;;;;;;6.80;4.88;;;;;;;16.14;100.00;101105.28;5027112;28;20033;-49
2022/08/25 06:22:20;;;;;;;5.03;4.57;;;;;;;16.13;100.00;101100.13;5028599;28;20029;-50
2022/08/25 06:24:45;;;;;;;6.43;4.93;;;;;;;16.12;100.00;101103.84;5016121;28;20490;-48
2022/08/25 06:27:11;;;;;;;10.45;5.22;;;;;;;16.08;100.00;101103.47;5019687;28;20039;-50
2022/08/25 06:29:36;;;;;;;6.85;5.07;;;;;;;16.07;100.00;101100.97;5013266;28;20026;-49
2022/08/25 06:32:02;;;;;;;7.20;4.85;;;;;;;16.05;100.00;101095.84;5021988;28;20036;-49
2022/08/25 06:34:27;;;;;;;6.47;4.70;;;;;;;16.04;100.00;101088.84;5022825;28;20024;-54
2022/08/25 06:36:52;;;;;;;6.57;5.88;;;;;;;16.03;100.00;101092.56;5021522;28;20502;-54
2022/08/25 06:39:18;;;;;;;10.30;5.32;;;;;;;16.03;100.00;101086.38;5022935;28;20025;-50
2022/08/25 06:41:43;;;;;;;8.52;4.97;;;;;;;16.00;100.00;101090.28;5020639;28;20104;-52
2022/08/25 06:44:09;;;;;;;6.93;5.28;;;;;;;15.98;100.00;101092.38;5024640;28;20486;-52
2022/08/25 06:46:35;;;;;;;7.05;4.95;;;;;;;16.00;100.00;101094.84;5018439;28;20021;-51
2022/08/25 06:49:01;;;;;;;6.55;5.53;;;;;;;15.99;100.00;101103.91;5016088;28;21597;-50
2022/08/25 06:51:26;;;;;;;4.35;4.03;;;;;;;15.95;100.00;101092.78;5019008;28;20071;-51
2022/08/25 06:53:52;;;;;;;5.18;4.60;;;;;;;15.95;100.00;101105.34;5019849;28;20025;-49
2022/08/25 06:56:20;;;;;;;3.35;3.00;;;;;;;15.96;100.00;101107.00;5019229;28;20033;-50
2022/08/25 06:58:46;;;;;;;3.47;3.17;;;;;;;15.98;100.00;101113.78;5018457;28;20455;-47
2022/08/25 07:01:13;;;;;;;4.70;4.30;;;;;;;15.99;100.00;101118.09;5013722;28;20033;-51
2022/08/25 07:03:39;;;;;;;4.60;2.90;;;;;;;16.01;100.00;101128.59;5016818;28;20532;-50
2022/08/25 07:06:04;;;;;;;4.70;2.88;;;;;;;15.97;100.00;101119.34;5013164;28;20029;-47
2022/08/25 07:08:30;;;;;;;5.00;3.85;;;;;;;15.96;100.00;101115.84;5017565;28;20033;-48
2022/08/25 07:10:56;;;;;;;3.55;3.25;;;;;;;15.98;100.00;101112.94;5012485;28;20506;-48
2022/08/25 07:13:21;;;;;;;2.85;2.65;;;;;;;15.97;100.00;101105.97;5016589;28;20038;-49
2022/08/25 07:15:52;;;;;;;4.47;3.30;;;;;;;16.00;100.00;101105.53;5023168;28;20021;-47
2022/08/25 07:18:18;;;;;;;4.38;2.40;;;;;;;16.01;100.00;101107.19;5013937;28;20037;-50
2022/08/25 07:20:43;;;;;;;4.40;3.33;;;;;;;16.01;100.00;101115.22;5022610;28;20037;-49
2022/08/25 07:23:09;;;;;;;4.70;2.95;;;;;;;16.01;100.00;101120.56;5015877;28;20113;-50
2022/08/25 07:25:35;;;;;;;2.28;2.10;;;;;;;16.03;100.00;101115.81;5021083;28;20021;-49
2022/08/25 07:28:00;;;;;;;2.95;1.92;;;;;;;16.01;100.00;101120.56;5021020;28;20037;-49
2022/08/25 07:30:26;;;;;;;1.83;1.73;;;;;;;16.02;100.00;101131.03;5016897;28;20112;-52
2022/08/25 07:32:52;;;;;;;3.03;1.45;;;;;;;16.03;100.00;101134.53;5027525;28;20037;-55
2022/08/25 07:35:19;;;;;;;3.83;1.95;;;;;;;16.08;100.00;101142.75;5019564;28;20055;-50
2022/08/25 07:37:47;;;;;;;2.33;2.10;;;;;;;16.12;100.00;101141.28;5011180;28;20036;-51
2022/08/25 07:40:16;;;;;;;4.38;2.90;;;;;;;16.15;100.00;101140.88;5010224;28;20431;-50
2022/08/25 07:42:42;;;;;;;3.15;2.05;;;;;;;16.10;100.00;101146.03;5009501;28;20030;-51
2022/08/25 07:45:09;;;;;;;3.28;1.90;;;;;;;16.08;100.00;101145.41;5015985;28;20030;-49
2022/08/25 07:47:35;;;;;;;2.00;1.45;;;;;;;16.10;100.00;101146.84;5011883;28;20156;-50
2022/08/25 07:50:00;;;;;;;4.30;1.90;;;;;;;16.10;100.00;101146.03;5013648;28;20104;-51
2022/08/25 07:52:26;;;;;;;1.90;1.80;;;;;;;16.11;100.00;101134.31;5010715;28;20290;-52
2022/08/25 07:54:53;;;;;;;1.33;1.25;;;;;;;16.13;100.00;101137.56;5014258;28;20040;-53
2022/08/25 07:57:21;;;;;;;4.90;1.65;;;;;;;16.14;100.00;101131.22;5018385;28;20394;-50
2022/08/25 07:59:47;;;;;;;0.65;0.65;;;;;;;16.13;100.00;101127.72;5017126;28;20037;-48
2022/08/25 08:02:12;;;;;;;1.20;1.10;;;;;;;16.14;100.00;101124.00;5017772;28;20486;-50
2022/08/25 08:04:38;;;;;;;0.85;0.75;;;;;;;16.16;100.00;101114.94;5019708;28;20301;-54
2022/08/25 08:07:05;;;;;;;2.00;1.05;;;;;;;16.19;100.00;101128.72;5010625;28;20030;-50
2022/08/25 08:09:31;;;;;;;1.02;0.70;;;;;;;16.18;100.00;101136.94;5015472;28;20560;-51
2022/08/25 08:11:56;;;;;;;0.60;0.47;;;;;;;16.24;100.00;101144.97;5019878;28;20048;-47
2022/08/25 08:14:22;;;;;;;0.60;0.60;;;;;;;16.26;100.00;101148.25;5025171;28;20037;-49
2022/08/25 08:16:48;;;;;;;2.00;1.30;;;;;;;16.28;100.00;101140.81;5021538;28;20026;-49
2022/08/25 08:19:13;;;;;;;0.95;0.60;;;;;;;16.31;100.00;101143.06;5019944;28;20021;-55
2022/08/25 08:21:39;;;;;;;1.45;0.60;;;;;;;16.40;100.00;101156.22;5016596;28;20033;-51
2022/08/25 08:24:05;;;;;;;1.02;0.40;;;;;;;16.47;100.00;101156.97;5020973;28;20482;-50
2022/08/25 08:26:31;;;;;;;2.47;0.70;;;;;;;16.54;100.00;101152.41;5018154;28;20898;-48
2022/08/25 08:28:56;;;;;;;1.08;0.70;;;;;;;16.57;100.00;101155.50;5017182;28;20029;-51
2022/08/25 08:31:25;;;;;;;1.15;1.05;;;;;;;16.61;100.00;101150.53;5017044;28;20045;-53
2022/08/25 08:33:52;;;;;;;3.42;0.52;;;;;;;16.61;100.00;101145.19;5010647;28;20066;-52
2022/08/25 08:36:18;;;;;;;1.75;0.57;;;;;;;16.52;100.00;101141.94;5014563;28;20056;-50
2022/08/25 08:38:45;;;;;;;2.05;0.50;;;;;;;16.51;100.00;101140.28;5016908;28;20026;-52
2022/08/25 08:44:29;;;;;;;0.38;0.30;;;;;;;16.55;100.00;101135.34;5021679;28;20528;-53
2022/08/25 08:47:18;;;;;;;0.30;0.30;;;;;;;16.56;100.00;101136.97;5014755;28;20034;-54
2022/08/25 08:50:13;;;;;;;0.55;0.30;;;;;;;16.68;100.00;101145.97;5019705;28;20036;-54
2022/08/25 08:53:16;;;;;;;0.93;0.30;;;;;;;16.71;100.00;101150.88;5019595;28;20037;-50
2022/08/25 08:55:46;;;;;;;1.13;0.60;;;;;;;16.73;100.00;101145.34;5020035;28;20041;-56
2022/08/25 08:58:20;;;;;;;0.43;0.43;;;;;;;16.71;100.00;101131.34;5020738;28;20042;-55
2022/08/25 09:00:51;;;;;;;1.35;0.85;;;;;;;16.74;100.00;101123.69;5022634;28;20025;-51
2022/08/25 09:03:39;;;;;;;0.40;0.38;;;;;;;16.80;100.00;101122.03;5016049;28;20557;-47
2022/08/25 09:06:10;;;;;;;0.30;0.30;;;;;;;16.85;100.00;101129.41;5013015;28;20549;-50
2022/08/25 09:08:37;;;;;;;1.13;0.50;;;;;;;16.86;100.00;101133.75;5016031;28;20041;-49
2022/08/25 09:11:17;;;;;;;2.05;0.60;;;;;;;16.79;100.00;101158.69;5017181;28;20037;-49
2022/08/25 09:14:31;;;;;;;0.97;0.43;;;;;;;16.79;100.00;101181.97;5015027;28;20056;-48
2022/08/25 09:16:59;;;;;;;1.15;0.50;;;;;;;16.81;100.00;101187.13;5000459;28;20050;-50
2022/08/25 09:19:24;;;;;;;0.38;0.38;;;;;;;16.79;100.00;101193.50;5019430;28;20022;-49
2022/08/25 09:22:16;;;;;;;1.08;0.32;;;;;;;16.83;100.00;101199.28;5012911;28;20037;-49
2022/08/25 09:25:16;;;;;;;0.63;0.30;;;;;;;16.90;100.00;101196.53;5013872;28;20030;-49
2022/08/25 09:28:07;;;;;;;0.30;0.28;;;;;;;17.00;100.00;101192.34;5010894;28;20041;-52
2022/08/25 09:30:48;;;;;;;1.02;0.45;;;;;;;17.12;100.00;101199.72;5016426;28;20109;-49
2022/08/25 09:33:24;;;;;;;0.38;0.38;;;;;;;17.11;100.00;101198.88;5011555;28;20037;-51
2022/08/25 09:35:53;;;;;;;0.50;0.40;;;;;;;17.13;100.00;101202.16;5018982;28;20434;-50
2022/08/25 09:38:19;;;;;;;0.90;0.90;;;;;;;17.15;100.00;101204.63;5009751;28;20029;-53
2022/08/25 09:40:48;;;;;;;1.90;1.27;;;;;;;17.11;100.00;101198.88;5006150;28;20133;-50
2022/08/25 09:43:42;;;;;;;1.10;0.98;;;;;;;17.15;100.00;101192.03;5009269;28;20491;-48
2022/08/25 09:46:15;;;;;;;1.95;1.85;;;;;;;17.11;100.00;101190.00;5024390;28;20049;-47
2022/08/25 09:48:45;;;;;;;1.42;1.35;;;;;;;17.07;100.00;101181.59;5014949;28;20120;-51
2022/08/25 09:51:29;;;;;;;1.55;1.50;;;;;;;17.11;100.00;101179.28;5017934;28;20091;-52
2022/08/25 09:54:03;;;;;;;1.30;1.23;;;;;;;17.07;100.00;101170.88;5014635;28;20360;-53
2022/08/25 09:56:31;;;;;;;1.40;1.30;;;;;;;17.03;100.00;101155.44;5014569;28;20049;-50
2022/08/25 09:59:26;;;;;;;1.85;1.75;;;;;;;17.13;100.00;101148.56;5019474;28;20072;-50
2022/08/25 10:02:25;;;;;;;1.27;1.17;;;;;;;17.21;100.00;101136.75;5014388;28;20088;-49
2022/08/25 10:04:51;;;;;;;3.00;1.10;;;;;;;17.35;100.00;101130.25;5008983;28;20033;-51
2022/08/25 10:07:28;;;;;;;0.73;0.73;;;;;;;17.46;100.00;101109.94;5010259;28;20075;-54
2022/08/25 10:09:57;;;;;;;1.45;0.57;;;;;;;17.50;100.00;101094.22;5019648;28;20056;-53
2022/08/25 10:12:41;;;;;;;0.40;0.40;;;;;;;17.53;100.00;101086.56;5025108;28;20049;-49
2022/08/25 10:15:29;;;;;;;0.22;0.22;;;;;;;17.54;100.00;101074.81;5022408;28;20073;-50
2022/08/25 10:17:55;;;;;;;0.52;0.52;;;;;;;17.54;100.00;101069.44;5025956;28;20070;-53
2022/08/25 10:20:26;;;;;;;0.57;0.57;;;;;;;17.58;100.00;101053.72;5024222;28;20021;-54
2022/08/25 10:23:09;;;;;;;3.35;0.63;;;;;;;17.64;100.00;101032.19;5015538;28;20083;-54
2022/08/25 10:25:40;;;;;;;1.42;1.42;;;;;;;17.62;100.00;101018.19;5022001;28;20034;-50
2022/08/25 10:28:35;;;;;;;0.85;0.80;;;;;;;17.59;100.00;101015.97;5020930;28;20113;-52
2022/08/25 10:31:07;;;;;;;0.57;0.57;;;;;;;17.60;100.00;101028.31;5018981;28;20033;-55
2022/08/25 10:33:45;;;;;;;;;;;;;;;17.65;100.00;101052.59;5021969;28;20029;-52
2022/08/25 10:37:03;;;;;;;1.15;1.00;;;;;;;17.55;100.00;101099.75;5016757;28;19924;-54
2022/08/25 10:39:39;;;;;;;0.85;0.85;;;;;;;17.37;100.00;101128.19;5021703;28;20092;-52
2022/08/25 10:42:22;;;;;;;0.93;0.68;;;;;;;17.31;100.00;101133.59;5018338;28;20042;-52
2022/08/25 10:48:18;;;;;;;0.40;0.40;;;;;;;17.36;100.00;101110.44;5011214;28;20048;-53
2022/08/25 10:51:07;;;;;;;4.78;0.32;;;;;;;17.40;100.00;101122.38;5015385;28;20040;-49
2022/08/25 10:53:54;;;;;;;0.30;0.30;;;;;;;17.39;100.00;101136.81;5018123;28;20037;-52
2022/08/25 10:56:54;;;;;;;0.80;0.75;;;;;;;17.37;100.00;101154.16;5023695;28;20040;-55
2022/08/25 10:59:30;;;;;;;0.40;0.10;;;;;;;17.34;100.00;101152.72;5024353;28;20056;-51
2022/08/25 11:02:43;;;;;;;0.43;0.25;;;;;;;17.31;100.00;101149.66;5016986;28;20028;-49
2022/08/25 11:05:17;;;;;;;0.20;0.20;;;;;;;17.33;100.00;101152.97;5021432;28;20045;-52
2022/08/25 11:07:50;;;;;;;0.22;0.20;;;;;;;17.37;100.00;101167.53;5015058;28;20049;-52
2022/08/25 11:10:47;;;;;;;1.15;1.05;;;;;;;17.36;100.00;101158.69;5013795;28;20060;-51
2022/08/25 11:13:31;;;;;;;2.53;1.55;;;;;;;17.26;100.00;101161.03;5012829;28;20057;-54
2022/08/25 11:16:06;;;;;;;1.15;1.08;;;;;;;17.28;100.00;101150.13;5021718;28;20100;-50
2022/08/25 11:18:31;;;;;;;1.35;1.25;;;;;;;17.36;100.00;101142.59;5012687;28;20041;-49
2022/08/25 11:21:10;;;;;;;3.13;1.30;;;;;;;17.50;100.00;101140.63;5014810;28;20026;-50
2022/08/25 11:23:45;;;;;;;2.08;1.30;;;;;;;17.69;100.00;101154.88;5012432;28;20041;-51
2022/08/25 11:26:15;;;;;;;1.73;1.63;;;;;;;17.91;100.00;101149.13;5022140;28;20028;-49
2022/08/25 11:28:51;;;;;;;2.25;2.13;;;;;;;18.18;100.00;101147.78;5020722;28;20029;-50
2022/08/25 11:31:18;;;;;;;2.13;2.00;;;;;;;18.40;100.00;101140.06;5019767;28;20026;-50
2022/08/25 11:33:44;;;;;;;4.45;1.23;;;;;;;18.61;100.00;101124.50;5013353;28;20691;-55
2022/08/25 11:36:32;;;;;;;1.83;1.45;;;;;;;18.81;100.00;101116.97;5010325;28;20030;-51